sensor_id;sensor_type;location;lat;lon;timestamp;temperature;humidity
9311;DHT22;4694;52.464;13.480;2023-09-19T00:00:42;17.80;99.90
9311;DHT22;4694;52.464;13.480;2023-09-19T00:03:11;17.80;99.90
9311;DHT22;4694;52.464;13.480;2023-09-19T00:05:38;17.80;99.90
9311;DHT22;4694;52.464;13.480;2023-09-19T00:08:05;17.80;99.90
9311;DHT22;4694;52.464;13.480;2023-09-19T00:10:33;17.80;99.90
9311;DHT22;4694;52.464;13.480;2023-09-19T00:13:02;17.80;99.90
9311;DHT22;4694;52.464;13.480;2023-09-19T00:15:36;17.80;99.90
9311;DHT22;4694;52.464;13.480;2023-09-19T00:18:03;17.70;99.90
9311;DHT22;4694;52.464;13.480;2023-09-19T00:20:38;17.70;99.90
9311;DHT22;4694;52.464;13.480;2023-09-19T00:23:06;17.70;99.90
9311;DHT22;4694;52.464;13.480;2023-09-19T00:25:34;17.60;99.90
9311;DHT22;4694;52.464;13.480;2023-09-19T00:28:02;17.60;99.90
9311;DHT22;4694;52.464;13.480;2023-09-19T00:30:30;17.50;99.90
9311;DHT22;4694;52.464;13.480;2023-09-19T00:32:57;17.50;99.90
9311;DHT22;4694;52.464;13.480;2023-09-19T00:35:23;17.50;99.90
9311;DHT22;4694;52.464;13.480;2023-09-19T00:37:53;17.40;99.90
9311;DHT22;4694;52.464;13.480;2023-09-19T00:40:21;17.40;99.90
9311;DHT22;4694;52.464;13.480;2023-09-19T00:42:49;17.40;99.90
9311;DHT22;4694;52.464;13.480;2023-09-19T00:45:17;17.40;99.90
9311;DHT22;4694;52.464;13.480;2023-09-19T00:47:45;17.40;99.90
9311;DHT22;4694;52.464;13.480;2023-09-19T00:50:13;17.30;99.90
9311;DHT22;4694;52.464;13.480;2023-09-19T00:52:43;17.30;99.90
9311;DHT22;4694;52.464;13.480;2023-09-19T00:55:15;17.30;99.90
9311;DHT22;4694;52.464;13.480;2023-09-19T00:57:44;17.30;99.90
9311;DHT22;4694;52.464;13.480;2023-09-19T01:00:12;17.30;99.90
9311;DHT22;4694;52.464;13.480;2023-09-19T01:02:41;17.20;99.90
9311;DHT22;4694;52.464;13.480;2023-09-19T01:05:09;17.20;99.90
9311;DHT22;4694;52.464;13.480;2023-09-19T01:07:36;17.20;99.90
9311;DHT22;4694;52.464;13.480;2023-09-19T01:10:07;17.20;99.90
9311;DHT22;4694;52.464;13.480;2023-09-19T01:12:46;17.30;99.90
9311;DHT22;4694;52.464;13.480;2023-09-19T01:15:20;17.20;99.90
9311;DHT22;4694;52.464;13.480;2023-09-19T01:17:53;17.30;99.90
9311;DHT22;4694;52.464;13.480;2023-09-19T01:20:31;17.30;99.90
9311;DHT22;4694;52.464;13.480;2023-09-19T01:23:11;17.30;99.90
9311;DHT22;4694;52.464;13.480;2023-09-19T01:26:07;17.30;99.90
9311;DHT22;4694;52.464;13.480;2023-09-19T01:28:53;17.30;99.90
9311;DHT22;4694;52.464;13.480;2023-09-19T01:31:28;17.30;99.90
9311;DHT22;4694;52.464;13.480;2023-09-19T01:34:01;17.40;99.90
9311;DHT22;4694;52.464;13.480;2023-09-19T01:36:31;17.40;99.90
9311;DHT22;4694;52.464;13.480;2023-09-19T01:39:00;17.40;99.90
9311;DHT22;4694;52.464;13.480;2023-09-19T01:41:41;17.40;99.90
9311;DHT22;4694;52.464;13.480;2023-09-19T01:44:17;17.40;99.90
9311;DHT22;4694;52.464;13.480;2023-09-19T01:46:50;17.30;99.90
9311;DHT22;4694;52.464;13.480;2023-09-19T01:49:25;17.40;99.90
9311;DHT22;4694;52.464;13.480;2023-09-19T01:52:02;17.40;99.90
9311;DHT22;4694;52.464;13.480;2023-09-19T01:54:33;17.40;99.90
9311;DHT22;4694;52.464;13.480;2023-09-19T01:57:07;18.40;99.90
9311;DHT22;4694;52.464;13.480;2023-09-19T01:59:45;17.50;99.90
9311;DHT22;4694;52.464;13.480;2023-09-19T02:02:17;17.50;99.90
9311;DHT22;4694;52.464;13.480;2023-09-19T02:04:44;17.40;99.90
9311;DHT22;4694;52.464;13.480;2023-09-19T02:07:10;17.40;99.90
9311;DHT22;4694;52.464;13.480;2023-09-19T02:09:37;17.40;99.90
9311;DHT22;4694;52.464;13.480;2023-09-19T02:12:05;17.50;99.90
9311;DHT22;4694;52.464;13.480;2023-09-19T02:14:32;17.30;99.90
9311;DHT22;4694;52.464;13.480;2023-09-19T02:17:01;17.30;99.90
9311;DHT22;4694;52.464;13.480;2023-09-19T02:19:30;17.20;99.90
9311;DHT22;4694;52.464;13.480;2023-09-19T02:21:59;17.20;99.90
9311;DHT22;4694;52.464;13.480;2023-09-19T02:24:27;17.20;99.90
9311;DHT22;4694;52.464;13.480;2023-09-19T02:26:54;17.10;99.90
9311;DHT22;4694;52.464;13.480;2023-09-19T02:29:24;17.10;99.90
9311;DHT22;4694;52.464;13.480;2023-09-19T02:31:52;17.10;99.90
9311;DHT22;4694;52.464;13.480;2023-09-19T02:34:21;17.10;99.90
9311;DHT22;4694;52.464;13.480;2023-09-19T02:36:50;17.10;99.90
9311;DHT22;4694;52.464;13.480;2023-09-19T02:39:18;17.00;99.90
9311;DHT22;4694;52.464;13.480;2023-09-19T02:41:44;17.00;99.90
9311;DHT22;4694;52.464;13.480;2023-09-19T02:44:13;17.00;99.90
9311;DHT22;4694;52.464;13.480;2023-09-19T02:46:40;16.90;99.90
9311;DHT22;4694;52.464;13.480;2023-09-19T02:49:07;16.90;99.90
9311;DHT22;4694;52.464;13.480;2023-09-19T02:51:34;16.90;99.90
9311;DHT22;4694;52.464;13.480;2023-09-19T02:54:02;16.90;99.90
9311;DHT22;4694;52.464;13.480;2023-09-19T02:56:29;16.90;99.90
9311;DHT22;4694;52.464;13.480;2023-09-19T02:58:57;16.90;99.90
9311;DHT22;4694;52.464;13.480;2023-09-19T03:01:26;16.90;99.90
9311;DHT22;4694;52.464;13.480;2023-09-19T03:03:52;16.90;99.90
9311;DHT22;4694;52.464;13.480;2023-09-19T03:06:19;16.90;99.90
9311;DHT22;4694;52.464;13.480;2023-09-19T03:08:47;16.90;99.90
9311;DHT22;4694;52.464;13.480;2023-09-19T03:11:15;16.90;99.90
9311;DHT22;4694;52.464;13.480;2023-09-19T03:13:50;16.80;99.90
9311;DHT22;4694;52.464;13.480;2023-09-19T03:16:16;16.80;99.90
9311;DHT22;4694;52.464;13.480;2023-09-19T03:18:44;16.80;99.90
9311;DHT22;4694;52.464;13.480;2023-09-19T03:21:12;16.90;99.90
9311;DHT22;4694;52.464;13.480;2023-09-19T03:23:40;16.90;99.90
9311;DHT22;4694;52.464;13.480;2023-09-19T03:26:07;16.90;99.90
9311;DHT22;4694;52.464;13.480;2023-09-19T03:28:35;17.00;99.90
9311;DHT22;4694;52.464;13.480;2023-09-19T03:31:02;17.10;99.90
9311;DHT22;4694;52.464;13.480;2023-09-19T03:33:29;17.10;99.90
9311;DHT22;4694;52.464;13.480;2023-09-19T03:35:57;17.30;99.90
9311;DHT22;4694;52.464;13.480;2023-09-19T03:38:24;17.20;99.90
9311;DHT22;4694;52.464;13.480;2023-09-19T03:40:51;17.20;99.90
9311;DHT22;4694;52.464;13.480;2023-09-19T03:43:18;17.30;99.90
9311;DHT22;4694;52.464;13.480;2023-09-19T03:45:47;17.30;99.90
9311;DHT22;4694;52.464;13.480;2023-09-19T03:48:15;17.30;99.90
9311;DHT22;4694;52.464;13.480;2023-09-19T03:50:42;17.40;99.90
9311;DHT22;4694;52.464;13.480;2023-09-19T03:53:09;17.40;99.90
9311;DHT22;4694;52.464;13.480;2023-09-19T03:55:36;17.40;99.90
9311;DHT22;4694;52.464;13.480;2023-09-19T03:58:04;17.40;99.90
9311;DHT22;4694;52.464;13.480;2023-09-19T04:00:31;17.50;99.90
9311;DHT22;4694;52.464;13.480;2023-09-19T04:02:59;17.50;99.90
9311;DHT22;4694;52.464;13.480;2023-09-19T04:05:27;17.40;99.90
9311;DHT22;4694;52.464;13.480;2023-09-19T04:07:54;17.50;99.90
9311;DHT22;4694;52.464;13.480;2023-09-19T04:10:21;17.40;99.90
9311;DHT22;4694;52.464;13.480;2023-09-19T04:12:51;17.40;99.90
9311;DHT22;4694;52.464;13.480;2023-09-19T04:15:20;17.60;99.90
9311;DHT22;4694;52.464;13.480;2023-09-19T04:17:48;17.40;99.90
9311;DHT22;4694;52.464;13.480;2023-09-19T04:20:17;17.40;99.90
9311;DHT22;4694;52.464;13.480;2023-09-19T04:22:46;17.40;99.90
9311;DHT22;4694;52.464;13.480;2023-09-19T04:25:13;17.40;99.90
9311;DHT22;4694;52.464;13.480;2023-09-19T04:27:40;17.40;99.90
9311;DHT22;4694;52.464;13.480;2023-09-19T04:30:08;17.40;99.90
9311;DHT22;4694;52.464;13.480;2023-09-19T04:32:37;17.30;99.90
9311;DHT22;4694;52.464;13.480;2023-09-19T04:35:06;17.40;99.90
9311;DHT22;4694;52.464;13.480;2023-09-19T04:37:37;17.40;99.90
9311;DHT22;4694;52.464;13.480;2023-09-19T04:40:06;17.40;99.90
9311;DHT22;4694;52.464;13.480;2023-09-19T04:42:38;17.50;99.90
9311;DHT22;4694;52.464;13.480;2023-09-19T04:45:05;17.70;99.90
9311;DHT22;4694;52.464;13.480;2023-09-19T04:47:32;18.10;99.90
9311;DHT22;4694;52.464;13.480;2023-09-19T04:49:59;18.40;99.90
9311;DHT22;4694;52.464;13.480;2023-09-19T04:52:26;18.50;99.90
9311;DHT22;4694;52.464;13.480;2023-09-19T04:54:53;18.60;99.90
9311;DHT22;4694;52.464;13.480;2023-09-19T04:57:20;18.60;99.90
9311;DHT22;4694;52.464;13.480;2023-09-19T04:59:47;18.60;99.90
9311;DHT22;4694;52.464;13.480;2023-09-19T05:02:14;18.60;99.90
9311;DHT22;4694;52.464;13.480;2023-09-19T05:04:40;18.50;99.90
9311;DHT22;4694;52.464;13.480;2023-09-19T05:07:07;18.50;99.90
9311;DHT22;4694;52.464;13.480;2023-09-19T05:09:34;18.60;99.90
9311;DHT22;4694;52.464;13.480;2023-09-19T05:12:05;18.70;99.90
9311;DHT22;4694;52.464;13.480;2023-09-19T05:14:32;18.60;99.90
9311;DHT22;4694;52.464;13.480;2023-09-19T05:16:58;18.60;99.90
9311;DHT22;4694;52.464;13.480;2023-09-19T05:19:25;18.60;99.90
9311;DHT22;4694;52.464;13.480;2023-09-19T05:21:51;18.50;99.90
9311;DHT22;4694;52.464;13.480;2023-09-19T05:24:18;18.40;99.90
9311;DHT22;4694;52.464;13.480;2023-09-19T05:26:45;18.40;99.90
9311;DHT22;4694;52.464;13.480;2023-09-19T05:29:13;18.40;99.90
9311;DHT22;4694;52.464;13.480;2023-09-19T05:31:39;18.40;99.90
9311;DHT22;4694;52.464;13.480;2023-09-19T05:34:08;18.30;99.90
9311;DHT22;4694;52.464;13.480;2023-09-19T05:36:35;18.20;99.90
9311;DHT22;4694;52.464;13.480;2023-09-19T05:39:02;18.20;99.90
9311;DHT22;4694;52.464;13.480;2023-09-19T05:41:29;18.10;99.90
9311;DHT22;4694;52.464;13.480;2023-09-19T05:43:55;17.90;99.90
9311;DHT22;4694;52.464;13.480;2023-09-19T05:46:26;18.10;99.90
9311;DHT22;4694;52.464;13.480;2023-09-19T05:48:55;18.10;99.90
9311;DHT22;4694;52.464;13.480;2023-09-19T05:51:22;18.00;99.90
9311;DHT22;4694;52.464;13.480;2023-09-19T05:53:50;18.00;99.90
9311;DHT22;4694;52.464;13.480;2023-09-19T05:56:17;18.00;99.90
9311;DHT22;4694;52.464;13.480;2023-09-19T05:58:45;18.00;99.90
9311;DHT22;4694;52.464;13.480;2023-09-19T06:01:11;18.00;99.90
9311;DHT22;4694;52.464;13.480;2023-09-19T06:03:40;18.00;99.90
9311;DHT22;4694;52.464;13.480;2023-09-19T06:06:07;18.00;99.90
9311;DHT22;4694;52.464;13.480;2023-09-19T06:08:33;18.00;99.90
9311;DHT22;4694;52.464;13.480;2023-09-19T06:11:00;18.20;99.90
9311;DHT22;4694;52.464;13.480;2023-09-19T06:13:28;18.40;99.90
9311;DHT22;4694;52.464;13.480;2023-09-19T06:15:55;18.50;99.90
9311;DHT22;4694;52.464;13.480;2023-09-19T06:18:22;18.70;99.90
9311;DHT22;4694;52.464;13.480;2023-09-19T06:20:53;18.80;99.90
9311;DHT22;4694;52.464;13.480;2023-09-19T06:23:21;19.10;99.90
9311;DHT22;4694;52.464;13.480;2023-09-19T06:25:48;19.30;99.90
9311;DHT22;4694;52.464;13.480;2023-09-19T06:28:15;19.40;99.90
9311;DHT22;4694;52.464;13.480;2023-09-19T06:30:45;19.60;99.90
9311;DHT22;4694;52.464;13.480;2023-09-19T06:33:13;19.90;99.90
9311;DHT22;4694;52.464;13.480;2023-09-19T06:35:39;19.80;99.90
9311;DHT22;4694;52.464;13.480;2023-09-19T06:38:08;19.80;99.90
9311;DHT22;4694;52.464;13.480;2023-09-19T06:40:34;19.80;99.90
9311;DHT22;4694;52.464;13.480;2023-09-19T06:43:01;20.00;99.90
9311;DHT22;4694;52.464;13.480;2023-09-19T06:45:28;20.10;99.90
9311;DHT22;4694;52.464;13.480;2023-09-19T06:47:55;20.40;99.90
9311;DHT22;4694;52.464;13.480;2023-09-19T06:50:23;20.90;99.90
9311;DHT22;4694;52.464;13.480;2023-09-19T06:52:51;21.40;99.90
9311;DHT22;4694;52.464;13.480;2023-09-19T06:55:21;21.60;99.90
9311;DHT22;4694;52.464;13.480;2023-09-19T06:57:50;21.70;99.90
9311;DHT22;4694;52.464;13.480;2023-09-19T07:00:18;21.90;99.90
9311;DHT22;4694;52.464;13.480;2023-09-19T07:02:55;21.90;99.90
9311;DHT22;4694;52.464;13.480;2023-09-19T07:05:23;22.20;99.90
9311;DHT22;4694;52.464;13.480;2023-09-19T07:07:49;22.20;99.90
9311;DHT22;4694;52.464;13.480;2023-09-19T07:10:16;22.60;99.90
9311;DHT22;4694;52.464;13.480;2023-09-19T07:12:45;23.50;99.90
9311;DHT22;4694;52.464;13.480;2023-09-19T07:15:12;24.40;99.90
9311;DHT22;4694;52.464;13.480;2023-09-19T07:17:39;25.10;99.90
9311;DHT22;4694;52.464;13.480;2023-09-19T07:20:06;26.00;99.90
9311;DHT22;4694;52.464;13.480;2023-09-19T07:22:33;26.70;99.90
9311;DHT22;4694;52.464;13.480;2023-09-19T07:25:00;27.10;99.90
9311;DHT22;4694;52.464;13.480;2023-09-19T07:27:26;27.50;99.00
9311;DHT22;4694;52.464;13.480;2023-09-19T07:29:54;26.90;96.60
9311;DHT22;4694;52.464;13.480;2023-09-19T07:32:21;26.50;96.80
9311;DHT22;4694;52.464;13.480;2023-09-19T07:34:48;25.40;97.80
9311;DHT22;4694;52.464;13.480;2023-09-19T07:37:15;25.00;97.50
9311;DHT22;4694;52.464;13.480;2023-09-19T07:39:42;24.10;98.40
9311;DHT22;4694;52.464;13.480;2023-09-19T07:42:10;23.80;99.50
9311;DHT22;4694;52.464;13.480;2023-09-19T07:44:43;23.40;99.90
9311;DHT22;4694;52.464;13.480;2023-09-19T07:47:13;23.80;99.90
9311;DHT22;4694;52.464;13.480;2023-09-19T07:49:40;23.80;99.90
9311;DHT22;4694;52.464;13.480;2023-09-19T07:52:09;24.00;99.90
9311;DHT22;4694;52.464;13.480;2023-09-19T07:54:36;23.90;99.60
9311;DHT22;4694;52.464;13.480;2023-09-19T07:57:04;23.30;99.90
9311;DHT22;4694;52.464;13.480;2023-09-19T07:59:31;23.50;99.90
9311;DHT22;4694;52.464;13.480;2023-09-19T08:01:58;23.70;99.90
9311;DHT22;4694;52.464;13.480;2023-09-19T08:04:28;23.60;99.60
9311;DHT22;4694;52.464;13.480;2023-09-19T08:07:00;23.70;99.70
9311;DHT22;4694;52.464;13.480;2023-09-19T08:09:29;23.30;99.60
9311;DHT22;4694;52.464;13.480;2023-09-19T08:11:59;23.50;99.90
9311;DHT22;4694;52.464;13.480;2023-09-19T08:14:29;23.00;99.90
9311;DHT22;4694;52.464;13.480;2023-09-19T08:16:57;22.50;99.80
9311;DHT22;4694;52.464;13.480;2023-09-19T08:19:30;22.30;99.90
9311;DHT22;4694;52.464;13.480;2023-09-19T08:21:58;22.30;99.90
9311;DHT22;4694;52.464;13.480;2023-09-19T08:24:25;22.10;99.90
9311;DHT22;4694;52.464;13.480;2023-09-19T08:26:54;21.90;99.90
9311;DHT22;4694;52.464;13.480;2023-09-19T08:29:21;21.60;99.90
9311;DHT22;4694;52.464;13.480;2023-09-19T08:31:53;21.30;99.90
9311;DHT22;4694;52.464;13.480;2023-09-19T08:34:21;21.10;99.90
9311;DHT22;4694;52.464;13.480;2023-09-19T08:36:50;20.70;99.90
9311;DHT22;4694;52.464;13.480;2023-09-19T08:39:18;20.50;99.90
9311;DHT22;4694;52.464;13.480;2023-09-19T08:41:44;20.50;99.90
9311;DHT22;4694;52.464;13.480;2023-09-19T08:44:12;20.40;99.90
9311;DHT22;4694;52.464;13.480;2023-09-19T08:46:41;20.30;99.90
9311;DHT22;4694;52.464;13.480;2023-09-19T08:49:22;20.30;99.90
9311;DHT22;4694;52.464;13.480;2023-09-19T08:52:06;20.30;99.90
9311;DHT22;4694;52.464;13.480;2023-09-19T08:54:37;20.40;99.90
9311;DHT22;4694;52.464;13.480;2023-09-19T08:57:07;20.50;99.90
9311;DHT22;4694;52.464;13.480;2023-09-19T08:59:37;20.60;99.90
9311;DHT22;4694;52.464;13.480;2023-09-19T09:02:10;20.60;99.90
9311;DHT22;4694;52.464;13.480;2023-09-19T09:04:39;20.80;99.90
9311;DHT22;4694;52.464;13.480;2023-09-19T09:07:10;20.70;99.90
9311;DHT22;4694;52.464;13.480;2023-09-19T09:09:37;20.80;99.90
9311;DHT22;4694;52.464;13.480;2023-09-19T09:12:08;20.90;99.90
9311;DHT22;4694;52.464;13.480;2023-09-19T09:14:38;21.00;99.90
9311;DHT22;4694;52.464;13.480;2023-09-19T09:17:11;21.60;99.90
9311;DHT22;4694;52.464;13.480;2023-09-19T09:19:37;22.30;99.90
9311;DHT22;4694;52.464;13.480;2023-09-19T09:22:10;23.00;99.00
9311;DHT22;4694;52.464;13.480;2023-09-19T09:24:37;23.80;98.30
9311;DHT22;4694;52.464;13.480;2023-09-19T09:27:22;24.20;97.00
9311;DHT22;4694;52.464;13.480;2023-09-19T09:29:53;24.90;95.90
9311;DHT22;4694;52.464;13.480;2023-09-19T09:32:22;25.70;94.50
9311;DHT22;4694;52.464;13.480;2023-09-19T09:34:51;26.60;92.70
9311;DHT22;4694;52.464;13.480;2023-09-19T09:37:20;27.30;89.20
9311;DHT22;4694;52.464;13.480;2023-09-19T09:39:52;27.70;86.10
9311;DHT22;4694;52.464;13.480;2023-09-19T09:42:32;27.60;82.90
9311;DHT22;4694;52.464;13.480;2023-09-19T09:45:14;27.20;81.10
9311;DHT22;4694;52.464;13.480;2023-09-19T09:47:42;26.50;80.30
9311;DHT22;4694;52.464;13.480;2023-09-19T09:50:23;25.70;82.50
9311;DHT22;4694;52.464;13.480;2023-09-19T09:53:03;24.90;82.20
9311;DHT22;4694;52.464;13.480;2023-09-19T09:55:57;24.60;83.80
9311;DHT22;4694;52.464;13.480;2023-09-19T09:58:25;24.20;83.20
9311;DHT22;4694;52.464;13.480;2023-09-19T10:00:54;23.70;83.90
9311;DHT22;4694;52.464;13.480;2023-09-19T10:03:31;23.80;84.50
9311;DHT22;4694;52.464;13.480;2023-09-19T10:06:00;24.20;83.80
9311;DHT22;4694;52.464;13.480;2023-09-19T10:08:36;24.80;83.70
9311;DHT22;4694;52.464;13.480;2023-09-19T10:11:15;25.60;82.30
9311;DHT22;4694;52.464;13.480;2023-09-19T10:13:42;25.90;80.60
9311;DHT22;4694;52.464;13.480;2023-09-19T10:16:13;25.80;80.00
9311;DHT22;4694;52.464;13.480;2023-09-19T10:18:45;25.90;79.30
9311;DHT22;4694;52.464;13.480;2023-09-19T10:21:14;26.60;78.20
9311;DHT22;4694;52.464;13.480;2023-09-19T10:23:50;27.70;76.90
9311;DHT22;4694;52.464;13.480;2023-09-19T10:26:23;28.60;73.90
9311;DHT22;4694;52.464;13.480;2023-09-19T10:28:52;29.00;71.80
9311;DHT22;4694;52.464;13.480;2023-09-19T10:31:21;29.00;69.70
9311;DHT22;4694;52.464;13.480;2023-09-19T10:33:49;29.10;68.70
9311;DHT22;4694;52.464;13.480;2023-09-19T10:36:17;29.30;67.10
9311;DHT22;4694;52.464;13.480;2023-09-19T10:38:50;29.50;66.60
9311;DHT22;4694;52.464;13.480;2023-09-19T10:41:22;29.00;66.40
9311;DHT22;4694;52.464;13.480;2023-09-19T10:43:51;28.40;65.90
9311;DHT22;4694;52.464;13.480;2023-09-19T10:46:26;28.00;65.60
9311;DHT22;4694;52.464;13.480;2023-09-19T10:48:53;28.20;64.70
9311;DHT22;4694;52.464;13.480;2023-09-19T10:51:21;29.10;64.00
9311;DHT22;4694;52.464;13.480;2023-09-19T10:53:53;29.60;61.70
9311;DHT22;4694;52.464;13.480;2023-09-19T10:56:27;30.10;61.20
9311;DHT22;4694;52.464;13.480;2023-09-19T10:59:11;30.80;60.90
9311;DHT22;4694;52.464;13.480;2023-09-19T11:01:46;31.10;58.20
9311;DHT22;4694;52.464;13.480;2023-09-19T11:04:24;30.70;57.10
9311;DHT22;4694;52.464;13.480;2023-09-19T11:07:02;30.10;57.40
9311;DHT22;4694;52.464;13.480;2023-09-19T11:09:48;29.70;57.70
9311;DHT22;4694;52.464;13.480;2023-09-19T11:12:48;29.00;57.00
9311;DHT22;4694;52.464;13.480;2023-09-19T11:18:52;27.40;59.00
9311;DHT22;4694;52.464;13.480;2023-09-19T11:21:51;27.40;59.60
9311;DHT22;4694;52.464;13.480;2023-09-19T11:24:30;27.20;59.80
9311;DHT22;4694;52.464;13.480;2023-09-19T11:27:15;27.30;59.40
9311;DHT22;4694;52.464;13.480;2023-09-19T11:29:44;27.50;58.20
9311;DHT22;4694;52.464;13.480;2023-09-19T11:32:11;27.90;58.10
9311;DHT22;4694;52.464;13.480;2023-09-19T11:34:42;28.40;57.50
9311;DHT22;4694;52.464;13.480;2023-09-19T11:40:33;28.90;56.60
9311;DHT22;4694;52.464;13.480;2023-09-19T11:43:28;28.70;56.70
9311;DHT22;4694;52.464;13.480;2023-09-19T11:46:03;28.70;57.20
9311;DHT22;4694;52.464;13.480;2023-09-19T11:48:32;29.00;56.80
9311;DHT22;4694;52.464;13.480;2023-09-19T11:51:00;29.20;56.70
9311;DHT22;4694;52.464;13.480;2023-09-19T11:53:34;28.90;55.80
9311;DHT22;4694;52.464;13.480;2023-09-19T11:56:04;28.60;56.10
9311;DHT22;4694;52.464;13.480;2023-09-19T11:58:34;28.30;56.50
9311;DHT22;4694;52.464;13.480;2023-09-19T12:01:05;28.10;56.80
9311;DHT22;4694;52.464;13.480;2023-09-19T12:03:46;28.20;57.30
9311;DHT22;4694;52.464;13.480;2023-09-19T12:06:15;28.10;57.00
9311;DHT22;4694;52.464;13.480;2023-09-19T12:08:45;28.00;56.40
9311;DHT22;4694;52.464;13.480;2023-09-19T12:11:16;27.80;56.50
9311;DHT22;4694;52.464;13.480;2023-09-19T12:13:49;27.80;56.70
9311;DHT22;4694;52.464;13.480;2023-09-19T12:16:20;27.80;56.00
9311;DHT22;4694;52.464;13.480;2023-09-19T12:18:50;27.60;56.50
9311;DHT22;4694;52.464;13.480;2023-09-19T12:21:30;27.40;56.60
9311;DHT22;4694;52.464;13.480;2023-09-19T12:24:05;27.20;56.90
9311;DHT22;4694;52.464;13.480;2023-09-19T12:26:40;26.80;57.10
9311;DHT22;4694;52.464;13.480;2023-09-19T12:29:12;26.70;58.00
9311;DHT22;4694;52.464;13.480;2023-09-19T12:31:50;26.80;57.70
9311;DHT22;4694;52.464;13.480;2023-09-19T12:34:21;27.00;57.40
9311;DHT22;4694;52.464;13.480;2023-09-19T12:37:03;27.00;57.40
9311;DHT22;4694;52.464;13.480;2023-09-19T12:39:31;27.20;57.70
9311;DHT22;4694;52.464;13.480;2023-09-19T12:41:58;27.70;57.40
9311;DHT22;4694;52.464;13.480;2023-09-19T12:44:26;28.10;56.80
9311;DHT22;4694;52.464;13.480;2023-09-19T12:46:53;28.40;56.90
9311;DHT22;4694;52.464;13.480;2023-09-19T12:49:20;28.90;56.20
9311;DHT22;4694;52.464;13.480;2023-09-19T12:51:48;29.30;54.80
9311;DHT22;4694;52.464;13.480;2023-09-19T12:54:16;29.30;55.30
9311;DHT22;4694;52.464;13.480;2023-09-19T12:56:44;29.40;55.60
9311;DHT22;4694;52.464;13.480;2023-09-19T12:59:13;29.40;54.80
9311;DHT22;4694;52.464;13.480;2023-09-19T13:01:44;29.10;54.50
9311;DHT22;4694;52.464;13.480;2023-09-19T13:04:15;28.80;54.90
9311;DHT22;4694;52.464;13.480;2023-09-19T13:06:46;28.60;55.10
9311;DHT22;4694;52.464;13.480;2023-09-19T13:09:14;28.30;55.50
9311;DHT22;4694;52.464;13.480;2023-09-19T13:11:42;27.90;55.10
9311;DHT22;4694;52.464;13.480;2023-09-19T13:14:15;27.50;55.90
9311;DHT22;4694;52.464;13.480;2023-09-19T13:16:54;27.10;55.60
9311;DHT22;4694;52.464;13.480;2023-09-19T13:19:38;26.60;56.80
9311;DHT22;4694;52.464;13.480;2023-09-19T13:22:36;26.20;56.60
9311;DHT22;4694;52.464;13.480;2023-09-19T13:25:03;25.70;57.80
9311;DHT22;4694;52.464;13.480;2023-09-19T13:27:32;25.40;58.90
9311;DHT22;4694;52.464;13.480;2023-09-19T13:30:00;25.50;58.90
9311;DHT22;4694;52.464;13.480;2023-09-19T13:32:29;25.50;57.40
9311;DHT22;4694;52.464;13.480;2023-09-19T13:34:56;25.50;57.00
9311;DHT22;4694;52.464;13.480;2023-09-19T13:37:23;25.50;57.50
9311;DHT22;4694;52.464;13.480;2023-09-19T13:39:50;25.50;57.90
9311;DHT22;4694;52.464;13.480;2023-09-19T13:42:16;25.60;58.20
9311;DHT22;4694;52.464;13.480;2023-09-19T13:44:44;25.60;58.40
9311;DHT22;4694;52.464;13.480;2023-09-19T13:47:10;25.70;58.50
9311;DHT22;4694;52.464;13.480;2023-09-19T13:49:41;25.70;58.50
9311;DHT22;4694;52.464;13.480;2023-09-19T13:52:09;25.50;58.10
9311;DHT22;4694;52.464;13.480;2023-09-19T13:54:38;25.40;58.60
9311;DHT22;4694;52.464;13.480;2023-09-19T13:57:05;25.40;58.90
9311;DHT22;4694;52.464;13.480;2023-09-19T13:59:32;25.40;58.50
9311;DHT22;4694;52.464;13.480;2023-09-19T14:01:59;25.20;58.80
9311;DHT22;4694;52.464;13.480;2023-09-19T14:04:26;25.00;59.10
9311;DHT22;4694;52.464;13.480;2023-09-19T14:06:55;24.70;59.20
9311;DHT22;4694;52.464;13.480;2023-09-19T14:09:23;24.60;59.20
9311;DHT22;4694;52.464;13.480;2023-09-19T14:11:50;24.40;59.60
9311;DHT22;4694;52.464;13.480;2023-09-19T14:14:18;24.30;59.60
9311;DHT22;4694;52.464;13.480;2023-09-19T14:16:44;24.40;60.20
9311;DHT22;4694;52.464;13.480;2023-09-19T14:19:11;24.40;60.00
9311;DHT22;4694;52.464;13.480;2023-09-19T14:21:39;24.50;60.00
9311;DHT22;4694;52.464;13.480;2023-09-19T14:24:07;24.40;60.00
9311;DHT22;4694;52.464;13.480;2023-09-19T14:26:35;24.20;60.60
9311;DHT22;4694;52.464;13.480;2023-09-19T14:29:01;24.00;61.20
9311;DHT22;4694;52.464;13.480;2023-09-19T14:31:28;23.70;61.70
9311;DHT22;4694;52.464;13.480;2023-09-19T14:33:55;23.60;64.70
9311;DHT22;4694;52.464;13.480;2023-09-19T14:36:22;23.60;63.30
9311;DHT22;4694;52.464;13.480;2023-09-19T14:38:52;23.60;62.70
9311;DHT22;4694;52.464;13.480;2023-09-19T14:41:21;23.60;63.00
9311;DHT22;4694;52.464;13.480;2023-09-19T14:43:51;23.50;63.20
9311;DHT22;4694;52.464;13.480;2023-09-19T14:46:18;23.40;63.30
9311;DHT22;4694;52.464;13.480;2023-09-19T14:48:45;23.30;63.00
9311;DHT22;4694;52.464;13.480;2023-09-19T14:51:13;23.20;63.20
9311;DHT22;4694;52.464;13.480;2023-09-19T14:53:40;23.10;63.90
9311;DHT22;4694;52.464;13.480;2023-09-19T14:56:08;23.10;64.50
9311;DHT22;4694;52.464;13.480;2023-09-19T14:58:36;23.10;63.50
9311;DHT22;4694;52.464;13.480;2023-09-19T15:01:05;22.90;63.40
9311;DHT22;4694;52.464;13.480;2023-09-19T15:03:32;22.80;64.80
9311;DHT22;4694;52.464;13.480;2023-09-19T15:06:00;22.70;64.30
9311;DHT22;4694;52.464;13.480;2023-09-19T15:08:27;22.70;64.30
9311;DHT22;4694;52.464;13.480;2023-09-19T15:10:53;22.60;63.50
9311;DHT22;4694;52.464;13.480;2023-09-19T15:13:21;22.50;65.30
9311;DHT22;4694;52.464;13.480;2023-09-19T15:15:49;22.40;64.20
9311;DHT22;4694;52.464;13.480;2023-09-19T15:18:16;22.30;64.60
9311;DHT22;4694;52.464;13.480;2023-09-19T15:20:43;22.30;64.30
9311;DHT22;4694;52.464;13.480;2023-09-19T15:23:10;22.20;64.30
9311;DHT22;4694;52.464;13.480;2023-09-19T15:25:38;22.20;64.70
9311;DHT22;4694;52.464;13.480;2023-09-19T15:28:06;22.20;64.50
9311;DHT22;4694;52.464;13.480;2023-09-19T15:30:37;22.20;65.70
9311;DHT22;4694;52.464;13.480;2023-09-19T15:33:05;22.20;65.40
9311;DHT22;4694;52.464;13.480;2023-09-19T15:35:32;22.20;65.70
9311;DHT22;4694;52.464;13.480;2023-09-19T15:37:58;22.20;66.10
9311;DHT22;4694;52.464;13.480;2023-09-19T15:40:26;22.20;66.00
9311;DHT22;4694;52.464;13.480;2023-09-19T15:42:54;22.10;66.20
9311;DHT22;4694;52.464;13.480;2023-09-19T15:45:22;22.10;66.50
9311;DHT22;4694;52.464;13.480;2023-09-19T15:47:50;22.10;67.10
9311;DHT22;4694;52.464;13.480;2023-09-19T15:50:19;22.10;67.60
9311;DHT22;4694;52.464;13.480;2023-09-19T15:52:52;22.00;67.70
9311;DHT22;4694;52.464;13.480;2023-09-19T15:55:20;21.90;68.50
9311;DHT22;4694;52.464;13.480;2023-09-19T15:57:47;21.80;69.30
9311;DHT22;4694;52.464;13.480;2023-09-19T16:00:14;21.80;69.10
9311;DHT22;4694;52.464;13.480;2023-09-19T16:02:43;21.70;69.40
9311;DHT22;4694;52.464;13.480;2023-09-19T16:05:12;21.70;69.80
9311;DHT22;4694;52.464;13.480;2023-09-19T16:07:42;21.60;70.40